SBI1550 UUOO-UWPS
Flight info
| Callsign | SBI1550 |
|---|---|
| Flight time | N/A |
| Altitude | 29000 |
| Route | PILOK1H PILOK L96 PETUK T386 AMAMU P163 DOSED L749 ATLOG N604 PISAR T766 PILEN PILEN2J |
| Aircraft | A319/M-SDE3FGHIRWY/LB1 |
Departure
| Time | 2026-04-13 18:32 |
|---|---|
| Airport | Voronezh International Airport (UUOO) |
Arrival
| Time | N/A |
|---|---|
| Airport | Saransk International Airport (UWPS) |
| Time | Latitude | Longitude | Altitude | Speed | Heading |
|---|---|---|---|---|---|
| 2026-04-13 17:46 | 51.81239 | 39.22722 | 514 ft | 0 kts | 224° |
| 2026-04-13 18:24 | 51.81244 | 39.22730 | 514 ft | 3 kts | 223° |
| 2026-04-13 18:24 | 51.81259 | 39.22753 | 514 ft | 3 kts | 223° |
| 2026-04-13 18:24 | 51.81275 | 39.22775 | 514 ft | 3 kts | 225° |
| 2026-04-13 18:25 | 51.81285 | 39.22803 | 514 ft | 3 kts | 270° |
| 2026-04-13 18:25 | 51.81280 | 39.22835 | 514 ft | 3 kts | 294° |
| 2026-04-13 18:25 | 51.81272 | 39.22865 | 514 ft | 3 kts | 289° |
| 2026-04-13 18:25 | 51.81269 | 39.22880 | 514 ft | 3 kts | 304° |
| 2026-04-13 18:26 | 51.81276 | 39.22866 | 514 ft | 0 kts | 313° |
| 2026-04-13 18:27 | 51.81280 | 39.22860 | 514 ft | 4 kts | 313° |
| 2026-04-13 18:28 | 51.81308 | 39.22811 | 514 ft | 7 kts | 312° |
| 2026-04-13 18:28 | 51.81349 | 39.22773 | 514 ft | 7 kts | 359° |
| 2026-04-13 18:28 | 51.81392 | 39.22820 | 514 ft | 8 kts | 43° |
| 2026-04-13 18:28 | 51.81436 | 39.22884 | 515 ft | 9 kts | 41° |
| 2026-04-13 18:29 | 51.81471 | 39.22960 | 515 ft | 9 kts | 82° |
| 2026-04-13 18:29 | 51.81451 | 39.23054 | 515 ft | 10 kts | 126° |
| 2026-04-13 18:29 | 51.81396 | 39.23168 | 514 ft | 17 kts | 130° |
| 2026-04-13 18:29 | 51.81315 | 39.23315 | 513 ft | 18 kts | 130° |
| 2026-04-13 18:30 | 51.81233 | 39.23472 | 512 ft | 19 kts | 130° |
| 2026-04-13 18:30 | 51.81147 | 39.23629 | 515 ft | 18 kts | 133° |
| 2026-04-13 18:30 | 51.81062 | 39.23787 | 515 ft | 19 kts | 130° |
| 2026-04-13 18:30 | 51.80977 | 39.23946 | 515 ft | 19 kts | 131° |
| 2026-04-13 18:31 | 51.80880 | 39.24076 | 515 ft | 14 kts | 145° |
| 2026-04-13 18:31 | 51.80848 | 39.24151 | 514 ft | 6 kts | 57° |
| 2026-04-13 18:31 | 51.80880 | 39.24129 | 515 ft | 8 kts | 314° |
| 2026-04-13 18:31 | 51.81032 | 39.23852 | 516 ft | 71 kts | 309° |
| 2026-04-13 18:32 | 51.81519 | 39.22941 | 516 ft | 139 kts | 311° |
| 2026-04-13 18:32 | 51.82217 | 39.21680 | 990 ft | 150 kts | 315° |
| 2026-04-13 18:32 | 51.82892 | 39.20456 | 1844 ft | 142 kts | 318° |
| 2026-04-13 18:32 | 51.83572 | 39.19154 | 2325 ft | 160 kts | 318° |
| 2026-04-13 18:33 | 51.84354 | 39.17717 | 2760 ft | 181 kts | 319° |
| 2026-04-13 18:33 | 51.85243 | 39.16166 | 3231 ft | 201 kts | 319° |
| 2026-04-13 18:33 | 51.86226 | 39.14379 | 3848 ft | 218 kts | 316° |
| 2026-04-13 18:34 | 51.88225 | 39.10557 | 5826 ft | 224 kts | 320° |
| 2026-04-13 18:34 | 51.89592 | 39.09515 | 6719 ft | 219 kts | 359° |
| 2026-04-13 18:34 | 51.91044 | 39.10254 | 7549 ft | 228 kts | 34° |
| 2026-04-13 18:34 | 51.92227 | 39.12019 | 8490 ft | 232 kts | 42° |
| 2026-04-13 18:35 | 51.93391 | 39.13821 | 9368 ft | 238 kts | 41° |
| 2026-04-13 18:35 | 51.94629 | 39.15683 | 10224 ft | 245 kts | 42° |
| 2026-04-13 18:35 | 51.95627 | 39.17954 | 10998 ft | 253 kts | 68° |
| 2026-04-13 18:35 | 51.95910 | 39.20800 | 11716 ft | 267 kts | 92° |
| 2026-04-13 18:36 | 51.95342 | 39.23812 | 12049 ft | 294 kts | 114° |
| 2026-04-13 18:36 | 51.94406 | 39.26917 | 12348 ft | 318 kts | 115° |
| 2026-04-13 18:36 | 51.93393 | 39.30218 | 12871 ft | 332 kts | 115° |
| 2026-04-13 18:36 | 51.92358 | 39.33598 | 13692 ft | 336 kts | 115° |
| 2026-04-13 18:37 | 51.91669 | 39.35856 | 14219 ft | 338 kts | 115° |
| 2026-04-13 18:37 | 51.90288 | 39.40407 | 15189 ft | 342 kts | 116° |
| 2026-04-13 18:37 | 51.89236 | 39.43890 | 15932 ft | 345 kts | 116° |
| 2026-04-13 18:37 | 51.88177 | 39.47399 | 16684 ft | 347 kts | 116° |
| 2026-04-13 18:38 | 51.87110 | 39.50937 | 17436 ft | 350 kts | 116° |
| 2026-04-13 18:38 | 51.86039 | 39.54482 | 18176 ft | 353 kts | 117° |
| 2026-04-13 18:38 | 51.84971 | 39.58015 | 18876 ft | 354 kts | 117° |
| 2026-04-13 18:38 | 51.83885 | 39.61600 | 19547 ft | 356 kts | 117° |
| 2026-04-13 18:39 | 51.82788 | 39.65205 | 20209 ft | 357 kts | 117° |
| 2026-04-13 18:39 | 51.81684 | 39.68823 | 20883 ft | 359 kts | 118° |
| 2026-04-13 18:39 | 51.80577 | 39.72452 | 21538 ft | 361 kts | 118° |
| 2026-04-13 18:39 | 51.79461 | 39.76097 | 22191 ft | 363 kts | 118° |
| 2026-04-13 18:40 | 51.78335 | 39.79769 | 22841 ft | 365 kts | 118° |
| 2026-04-13 18:40 | 51.77217 | 39.83411 | 23459 ft | 367 kts | 118° |
| 2026-04-13 18:40 | 51.76078 | 39.87114 | 24011 ft | 369 kts | 118° |
| 2026-04-13 18:40 | 51.74929 | 39.90842 | 24522 ft | 371 kts | 119° |
| 2026-04-13 18:41 | 51.73775 | 39.94586 | 25019 ft | 373 kts | 119° |
| 2026-04-13 18:41 | 51.72799 | 39.98489 | 25500 ft | 377 kts | 109° |
| 2026-04-13 18:41 | 51.72293 | 40.02619 | 26003 ft | 383 kts | 100° |
| 2026-04-13 18:41 | 51.72160 | 40.06934 | 26492 ft | 386 kts | 97° |
| 2026-04-13 18:42 | 51.72046 | 40.11282 | 26976 ft | 388 kts | 97° |
| 2026-04-13 18:42 | 51.71987 | 40.15660 | 27449 ft | 393 kts | 93° |
| 2026-04-13 18:42 | 51.72365 | 40.20076 | 27911 ft | 403 kts | 83° |
| 2026-04-13 18:42 | 51.73286 | 40.24431 | 28375 ft | 414 kts | 73° |
| 2026-04-13 18:43 | 51.74444 | 40.28698 | 28818 ft | 416 kts | 73° |
| 2026-04-13 18:43 | 51.75597 | 40.32989 | 29127 ft | 418 kts | 74° |
| 2026-04-13 18:43 | 51.76741 | 40.37259 | 29172 ft | 405 kts | 74° |
| 2026-04-13 18:43 | 51.77850 | 40.41397 | 29178 ft | 397 kts | 74° |
| 2026-04-13 18:44 | 51.79990 | 40.49476 | 29167 ft | 393 kts | 75° |
| 2026-04-13 18:44 | 51.82129 | 40.57617 | 29177 ft | 393 kts | 75° |
| 2026-04-13 18:45 | 51.84267 | 40.65761 | 29174 ft | 392 kts | 75° |
| 2026-04-13 18:45 | 51.86258 | 40.73917 | 29164 ft | 390 kts | 77° |
| 2026-04-13 18:46 | 51.88160 | 40.82176 | 29150 ft | 390 kts | 77° |
| 2026-04-13 18:46 | 51.90052 | 40.90342 | 29119 ft | 390 kts | 77° |
| 2026-04-13 18:47 | 51.91972 | 40.98567 | 29135 ft | 390 kts | 77° |
| 2026-04-13 18:47 | 51.93892 | 41.06783 | 29143 ft | 389 kts | 77° |
| 2026-04-13 18:48 | 51.95802 | 41.14961 | 29131 ft | 389 kts | 77° |
| 2026-04-13 18:48 | 51.97387 | 41.21798 | 29137 ft | 389 kts | 77° |